Latest Coastal Weather Observations for Cato Island

IDQ60701

Issued at 7:35 am EST Tuesday 21 October 2014 (issued every 10 minutes, with the page automatically refreshed every 10 minutes)

About coastal observations | Map of coastal stations | Coastal observations for QLD | Marine services | Other Formats
Station Details ID: 200601 Name: CATO ISLAND Lat: -23.25 Lon: 155.54 Height: 6.3 m
Data from the previous 72 hours. | See also: Recent months for locations in Queensland
Date/Time
EST
Temp

°C
Wind Pressure Rain
since 9am
mm
Weather Cloud Vis
km
Sea
Height
m
Swell
Dir
 
Speed
knots
Gust
knots
hPa Trend Height
m
Period
s
Dir
21/07:30am 20.9 ESE 19 24 1022.7 - - - - - - - - -
21/07:00am 22.1 ESE 18 21 1022.4 - - - - - - - - -
21/06:30am 21.9 ESE 19 23 1021.9 - - - - - - - - -
21/06:00am 21.9 E 20 23 1021.7 - - - - - - - - -
21/05:30am 21.8 ESE 20 24 1021.2 - - - - - - - - -
21/05:00am 22.0 ESE 21 24 1021.1 - - - - - - - - -
21/04:30am 21.8 ESE 20 23 1020.8 - - - - - - - - -
21/04:00am 21.7 ESE 21 25 1020.7 - - - - - - - - -
21/03:30am 21.6 ESE 21 24 1020.5 - - - - - - - - -
21/03:00am 21.5 E 19 23 1020.6 - - - - - - - - -
21/02:30am 21.3 E 20 25 1020.7 - - - - - - - - -
21/02:00am 21.7 ESE 17 20 1020.8 - - - - - - - - -
21/01:30am 21.8 ESE 19 23 1021.2 - - - - - - - - -
21/01:00am 21.7 ESE 18 22 1021.6 - - - - - - - - -
21/12:30am 21.7 ESE 17 19 1022.1 - - - - - - - - -
21/12:00am 21.9 ESE 17 20 1022.2 - - - - - - - - -
 
Date/Time
EST
Temp

°C
Wind Pressure Rain
since 9am
mm
Weather Cloud Vis
km
Sea
Height
m
Swell
Dir
 
Speed
knots
Gust
knots
hPa Trend Height
m
Period
s
Dir
20/11:30pm 21.8 ESE 18 22 1022.5 - - - - - - - - -
20/11:00pm 21.7 E 19 23 1022.8 - - - - - - - - -
20/10:30pm 21.8 ESE 22 26 1022.8 - - - - - - - - -
20/10:00pm 21.9 E 19 23 1023.0 - - - - - - - - -
20/09:30pm 21.8 ESE 20 24 1022.9 - - - - - - - - -
20/09:00pm 21.9 ESE 21 25 1022.9 - - - - - - - - -
20/08:30pm 21.8 ESE 23 26 1022.6 - - - - - - - - -
20/08:00pm 21.8 ESE 21 26 1022.2 - - - - - - - - -
20/07:30pm 22.0 ESE 21 25 1021.6 - - - - - - - - -
20/07:00pm 22.0 ESE 20 23 1021.6 - - - - - - - - -
20/06:30pm 22.0 ESE 18 21 1021.4 - - - - - - - - -
20/06:00pm 22.2 ESE 17 20 1021.2 - - - - - - - - -
20/05:30pm 22.1 SE 17 21 1020.7 - - - - - - - - -
20/05:00pm 22.0 SE 20 22 1020.4 - - - - - - - - -
20/04:30pm 22.1 ESE 19 22 1020.0 - - - - - - - - -
20/04:00pm 22.2 ESE 19 23 1019.8 - - - - - - - - -
20/03:30pm 22.4 ESE 19 22 1019.8 - - - - - - - - -
20/03:00pm 22.4 ESE 20 23 1019.7 - - - - - - - - -
20/02:30pm 22.6 SE 17 20 1020.0 - - - - - - - - -
20/02:00pm 22.7 ESE 15 17 1020.2 - - - - - - - - -
20/01:30pm 22.5 ESE 15 17 1020.6 - - - - - - - - -
20/01:00pm 22.9 ESE 13 16 1020.9 - - - - - - - - -
20/12:30pm 22.6 ESE 15 17 1021.3 - - - - - - - - -
20/12:00pm 22.8 ESE 16 19 1021.6 - - - - - - - - -
20/11:30am 22.3 E 19 22 1021.9 - - - - - - - - -
20/11:00am 22.3 ESE 21 24 1022.1 - - - - - - - - -
20/10:30am 22.5 ESE 16 20 1022.6 - - - - - - - - -
20/10:00am 22.3 ESE 17 19 1022.6 - - - - - - - - -
20/09:30am 22.1 ESE 20 23 1022.7 - - - - - - - - -
20/09:00am 22.1 ESE 21 26 1022.6 - - - - - - - - -
20/08:30am 21.9 ESE 21 26 1022.7 - - - - - - - - -
20/08:00am 21.8 ESE 20 23 1022.7 - - - - - - - - -
20/07:30am 21.9 SE 20 25 1022.6 - - - - - - - - -
20/07:00am 21.9 SE 19 22 1022.4 - - - - - - - - -
20/06:30am 21.9 SE 21 27 1022.1 - - - - - - - - -
20/06:00am 21.7 ESE 21 25 1021.9 - - - - - - - - -
20/05:30am 21.6 ESE 22 25 1021.6 - - - - - - - - -
20/05:00am 21.4 ESE 21 25 1021.3 - - - - - - - - -
20/04:30am 21.4 ESE 19 23 1021.1 - - - - - - - - -
20/04:00am 21.4 ESE 19 22 1021.0 - - - - - - - - -
20/03:30am 21.6 E 21 24 1020.8 - - - - - - - - -
20/03:00am 21.5 ESE 19 22 1020.7 - - - - - - - - -
20/02:30am 21.6 ESE 20 24 1020.6 - - - - - - - - -
20/02:00am 21.4 ESE 19 23 1020.7 - - - - - - - - -
20/01:30am 21.4 ESE 19 23 1020.9 - - - - - - - - -
20/01:00am 21.5 ESE 21 24 1021.1 - - - - - - - - -
20/12:30am 21.3 E 20 23 1021.5 - - - - - - - - -
20/12:00am 21.7 E 19 23 1021.9 - - - - - - - - -
 
Date/Time
EST
Temp

°C
Wind Pressure Rain
since 9am
mm
Weather Cloud Vis
km
Sea
Height
m
Swell
Dir
 
Speed
knots
Gust
knots
hPa Trend Height
m
Period
s
Dir
19/11:30pm 21.7 ESE 20 24 1022.1 - - - - - - - - -
19/11:00pm 21.7 ESE 20 24 1022.5 - - - - - - - - -
19/10:30pm 21.9 ESE 20 23 1022.6 - - - - - - - - -
19/10:00pm 21.9 ESE 20 23 1022.6 - - - - - - - - -
19/09:30pm 22.1 ESE 21 25 1023.0 - - - - - - - - -
19/09:00pm 21.9 ESE 22 26 1022.9 - - - - - - - - -
19/08:30pm 21.9 ESE 21 24 1022.8 - - - - - - - - -
19/08:00pm 22.0 ESE 21 25 1022.6 - - - - - - - - -
19/07:30pm 22.1 ESE 22 25 1022.3 - - - - - - - - -
19/07:00pm 21.9 ESE 21 24 1022.3 - - - - - - - - -
19/06:30pm 22.1 ESE 20 24 1022.0 - - - - - - - - -
19/06:00pm 22.0 ESE 18 21 1022.0 - - - - - - - - -
19/05:30pm 22.0 ESE 19 23 1021.9 - - - - - - - - -
19/05:00pm 22.2 ESE 20 23 1021.6 - - - - - - - - -
19/04:30pm 22.1 ESE 20 25 1021.3 - - - - - - - - -
19/04:00pm 22.3 ESE 20 24 1021.1 - - - - - - - - -
19/03:30pm 22.3 ESE 21 23 1020.9 - - - - - - - - -
19/03:00pm 22.4 ESE 21 25 1020.7 - - - - - - - - -
19/02:30pm 22.3 ESE 22 25 1020.6 - - - - - - - - -
19/02:00pm 22.3 ESE 23 26 1020.9 - - - - - - - - -
19/01:30pm 22.7 SE 24 28 1021.0 - - - - - - - - -
19/01:00pm 22.8 SE 23 27 1021.3 - - - - - - - - -
19/12:30pm 22.6 SE 24 29 1021.4 - - - - - - - - -
19/12:00pm 22.6 SE 25 28 1021.5 - - - - - - - - -
19/11:30am 22.6 SE 24 28 1022.0 - - - - - - - - -
19/11:00am 22.6 SE 24 28 1022.3 - - - - - - - - -
19/10:30am 22.7 ESE 24 29 1022.5 - - - - - - - - -
19/10:00am 22.3 SE 25 28 1022.7 - - - - - - - - -
19/09:30am 22.2 SE 25 30 1022.8 - - - - - - - - -
19/09:00am 22.5 SE 24 27 1022.9 - - - - - - - - -
19/08:30am 22.2 ESE 24 28 1023.1 - - - - - - - - -
19/08:00am 22.2 ESE 24 28 1023.1 - - - - - - - - -
19/07:30am 22.1 SE 25 28 1023.0 - - - - - - - - -
19/07:00am 21.9 SE 26 31 1022.7 - - - - - - - - -
19/06:30am 21.7 SE 26 30 1022.4 - - - - - - - - -
19/06:00am 21.9 SE 27 32 1022.2 - - - - - - - - -
19/05:30am 21.6 SE 25 29 1021.7 - - - - - - - - -
19/05:00am 21.6 SE 26 31 1021.4 - - - - - - - - -
19/04:30am 21.6 SE 26 29 1021.1 - - - - - - - - -
19/04:00am 21.5 SE 26 31 1020.8 - - - - - - - - -
19/03:30am 21.4 ESE 25 29 1020.8 - - - - - - - - -
19/03:00am 21.5 ESE 26 31 1020.6 - - - - - - - - -
19/02:30am 21.4 ESE 24 29 1020.8 - - - - - - - - -
19/02:00am 21.7 ESE 23 27 1020.7 - - - - - - - - -
19/01:30am 21.7 ESE 21 26 1021.0 - - - - - - - - -
19/01:00am 21.6 ESE 22 26 1021.0 - - - - - - - - -
19/12:30am 21.7 ESE 24 27 1021.2 - - - - - - - - -
19/12:00am 22.0 ESE 24 28 1021.5 - - - - - - - - -
 
Date/Time
EST
Temp

°C
Wind Pressure Rain
since 9am
mm
Weather Cloud Vis
km
Sea
Height
m
Swell
Dir
 
Speed
knots
Gust
knots
hPa Trend Height
m
Period
s
Dir
18/11:30pm 21.6 ESE 24 27 1021.7 - - - - - - - - -
18/11:00pm 21.9 ESE 24 29 1022.0 - - - - - - - - -
18/10:30pm 21.8 ESE 24 29 1022.5 - - - - - - - - -
18/10:00pm 21.9 ESE 25 29 1022.7 - - - - - - - - -
18/09:30pm 22.0 ESE 25 28 1022.6 - - - - - - - - -
18/09:00pm 22.0 ESE 25 29 1022.4 - - - - - - - - -
18/08:30pm 22.0 ESE 26 31 1022.2 - - - - - - - - -
18/08:00pm 22.0 ESE 26 31 1022.0 - - - - - - - - -
18/07:30pm 22.0 ESE 26 32 1021.8 - - - - - - - - -
18/07:00pm 22.1 ESE 29 35 1021.6 - - - - - - - - -
18/06:30pm 22.2 ESE 27 34 1021.3 - - - - - - - - -
18/06:00pm 22.1 ESE 27 31 1021.0 - - - - - - - - -
18/05:30pm 22.2 ESE 26 30 1020.6 - - - - - - - - -
18/05:00pm 22.1 ESE 26 30 1020.0 - - - - - - - - -
18/04:30pm 22.3 ESE 25 29 1019.6 - - - - - - - - -
18/04:00pm 22.3 SE 26 30 1019.4 - - - - - - - - -
18/03:30pm 22.5 SE 25 29 1019.2 - - - - - - - - -
18/03:00pm 22.4 SE 27 32 1019.1 - - - - - - - - -
18/02:30pm 22.6 SE 24 29 1019.2 - - - - - - - - -
18/02:00pm 22.4 SE 25 30 1019.3 - - - - - - - - -
18/01:30pm 22.8 SE 25 29 1019.5 - - - - - - - - -
18/01:00pm 23.2 SE 25 29 1019.6 - - - - - - - - -
18/12:30pm 22.9 SE 25 28 1019.7 - - - - - - - - -
18/12:00pm 22.8 SE 24 28 1020.0 - - - - - - - - -
18/11:30am 23.0 SE 24 28 1020.3 - - - - - - - - -
18/11:00am 22.9 SSE 24 28 1020.5 - - - - - - - - -
18/10:30am 22.9 SE 25 28 1020.7 - - - - - - - - -
18/10:00am 23.1 SSE 24 28 1020.9 - - - - - - - - -
18/09:30am 23.1 SE 24 27 1021.0 - - - - - - - - -
18/09:00am 22.9 SE 22 26 1021.0 - - - - - - - - -
18/08:30am 22.9 SSE 20 25 1020.9 - - - - - - - - -
18/08:00am 23.0 S 21 24 1020.7 - - - - - - - - -

Other Formats:

Comma delimited format used in spreadsheet applications
http://www.bom.gov.au/fwo/IDQ60701/IDQ60701.94394.axf

JavaScript Object Notation format (JSON) in row-major order
http://www.bom.gov.au/fwo/IDQ60701/IDQ60701.94394.json